Latest Weather Observations for Truscott

IDW60801

Issued at 11:03 pm WST Monday 25 January 2021 (issued every 10 minutes, with the page automatically refreshed every 10 minutes)

About weather observations | Map of weather stations | Latest weather observations for WA | Other Formats
Station Details ID: 001020 Name: TRUSCOTT Lat: -14.09 Lon: 126.39 Height: 51.0 m
Data from the previous 72 hours. | See also: Recent months at Truscott
Date/Time
WST
Temp
°C
App
Temp
°C
Dew
Point
°C
Rel
Hum
%
Delta-T
°C
Wind Press
QNH
hPa
Press
MSL
hPa
Rain since
9am
mm
Dir  Spd
km/h
Gust
km/h
Spd
kts
Gust
kts
25/11:00pm 24.4 29.3 24.4 100 0.0 S 6 7 3 4 1005.3 1004.9 22.4
25/10:30pm 24.2 30.2 24.2 100 0.0 CALM 0 0 0 0 1005.6 1005.2 22.4
25/10:00pm 24.1 29.2 24.1 100 0.0 E 4 6 2 3 1005.9 1005.5 22.4
25/09:30pm 24.1 28.9 24.1 100 0.0 ESE 6 9 3 5 1006.2 1005.8 22.4
25/09:00pm 24.1 28.7 24.1 100 0.0 SE 7 13 4 7 1006.2 1005.6 22.4
25/08:30pm 24.3 29.2 24.3 100 0.0 NNE 6 7 3 4 1006.0 1005.6 22.2
25/08:00pm 24.1 29.2 24.1 100 0.0 NNE 4 7 2 4 1005.6 1005.2 21.8
25/07:30pm 24.2 29.4 24.2 100 0.0 SSW 4 9 2 5 1005.4 1005.0 21.0
25/07:00pm 24.1 27.9 24.1 100 0.0 SSE 11 15 6 8 1005.0 1004.6 20.2
25/06:30pm 24.2 27.1 23.9 98 0.2 SSE 15 20 8 11 1004.7 1004.3 19.2
25/06:00pm 26.4 25.6 21.6 75 3.2 SSW 28 46 15 25 1004.3 1003.7 17.6
25/05:55pm 27.5 28.0 21.1 68 4.3 SW 20 46 11 25 1004.2 1003.8 17.6
25/05:30pm 29.5 32.7 25.5 79 2.8 W 19 28 10 15 1003.1 1002.8 17.6
25/05:00pm 29.4 32.9 25.4 79 2.8 W 17 28 9 15 1002.6 1002.3 17.6
25/04:30pm 29.5 32.0 24.8 76 3.3 W 20 33 11 18 1002.2 1001.9 17.6
25/04:00pm 29.5 32.5 25.3 78 3.0 W 19 28 10 15 1002.1 1001.8 17.6
25/03:30pm 29.6 32.8 25.6 79 2.8 W 19 32 10 17 1001.9 1001.6 17.6
25/03:00pm 29.8 32.5 25.1 76 3.3 W 20 26 11 14 1001.9 1001.5 17.6
25/02:30pm 30.1 32.7 24.9 73 3.7 W 20 30 11 16 1002.0 1001.7 17.6
25/02:00pm 30.4 32.0 24.5 70 4.1 W 24 33 13 18 1002.2 1001.9 17.6
25/01:30pm 30.7 32.7 24.6 70 4.3 W 22 33 12 18 1002.7 1002.4 17.6
25/01:00pm 30.6 33.1 24.7 71 4.1 W 20 32 11 17 1003.2 1002.9 17.6
25/12:30pm 30.8 33.7 25.4 73 3.8 W 20 33 11 18 1003.3 1003.0 17.6
25/12:00pm 30.4 32.6 26.1 78 3.1 W 26 35 14 19 1003.6 1003.1 17.6
25/11:30am 30.2 34.4 27.0 83 2.3 W 19 28 10 15 1004.4 1004.0 17.6
25/11:00am 28.4 32.9 25.8 86 1.8 W 13 17 7 9 1005.0 1004.6 17.6
25/10:30am 27.1 31.2 24.6 86 1.7 SW 11 17 6 9 1005.7 1005.3 17.6
25/10:03am 26.5 31.6 25.6 95 0.6 SW 9 15 5 8 1006.1 1005.7 17.6
25/10:01am 26.6 32.2 26.3 98 0.2 SW 9 13 5 7 1006.1 1005.7 17.6
25/10:00am 26.7 32.4 26.5 99 0.1 SW 9 15 5 8 1006.1 1005.7 17.6
25/09:42am 26.7 30.8 25.7 94 0.7 WSW 15 33 8 18 1005.9 1005.5 16.6
25/09:30am 28.4 32.5 26.4 89 1.4 NW 17 26 9 14 1006.0 1005.6 2.2
25/09:28am 28.5 32.4 26.1 87 1.7 NW 17 26 9 14 1006.0 1005.6 1.6
25/09:00am 29.3 35.0 26.5 85 2.0 NW 9 15 5 8 1006.1 1005.5 26.0
25/08:30am 28.3 33.8 26.1 88 1.6 NNW 9 15 5 8 1005.9 1005.5 26.0
25/08:00am 26.9 32.3 25.1 90 1.3 NNE 6 11 3 6 1006.0 1005.6 26.0
25/07:30am 26.0 31.1 24.6 92 1.0 ENE 6 9 3 5 1006.1 1005.7 26.0
25/07:00am 25.3 31.3 24.3 94 0.7 CALM 0 4 0 2 1005.9 1005.5 26.0
25/06:30am 24.5 29.5 24.5 100 0.0 E 6 7 3 4 1005.6 1005.2 26.0
25/06:00am 24.0 29.8 24.0 100 0.0 CALM 0 0 0 0 1004.9 1004.2 26.0
25/05:30am 23.9 28.4 23.9 100 0.0 S 7 7 4 4 1004.7 1004.3 26.0
25/05:00am 23.4 28.9 23.4 100 0.0 CALM 0 2 0 1 1004.3 1003.9 26.0
25/04:30am 23.3 28.4 23.3 100 0.0 E 2 6 1 3 1004.4 1004.0 26.0
25/04:00am 23.2 27.4 23.2 100 0.0 ESE 6 9 3 5 1004.3 1003.9 26.0
25/03:30am 23.1 26.7 23.1 100 0.0 ESE 9 13 5 7 1004.6 1004.2 26.0
25/03:00am 23.4 27.2 23.4 100 0.0 ESE 9 11 5 6 1004.5 1003.9 26.0
25/02:30am 23.8 28.5 23.3 97 0.3 NNW 4 9 2 5 1004.0 1003.7 26.0
25/02:00am 23.9 26.8 22.5 92 0.9 WSW 11 15 6 8 1003.6 1003.3 26.0
25/01:30am 23.8 26.8 22.6 93 0.8 SW 11 13 6 7 1004.2 1003.8 26.0
25/01:00am 24.0 27.5 22.8 93 0.8 WSW 9 13 5 7 1004.8 1004.4 26.0
25/12:30am 23.7 28.0 23.7 100 0.0 WSW 7 11 4 6 1005.6 1005.2 26.0
25/12:00am 23.5 27.3 23.5 100 0.0 SW 9 11 5 6 1006.0 1005.4 25.8
 
Date/Time
WST
Temp
°C
App
Temp
°C
Dew
Point
°C
Rel
Hum
%
Delta-T
°C
Wind Press
QNH
hPa
Press
MSL
hPa
Rain since
9am
mm
Dir  Spd
km/h
Gust
km/h
Spd
kts
Gust
kts
24/11:30pm 23.0 26.9 23.0 100 0.0 WNW 7 9 4 5 1006.7 1006.3 25.8
24/11:09pm 22.9 27.0 22.9 100 0.0 NNW 6 9 3 5 1007.1 1006.7 25.6
24/11:00pm 22.9 27.7 22.9 100 0.0 NW 2 7 1 4 1007.2 1006.8 25.0
24/10:55pm 23.0 27.9 23.0 100 0.0 WNW 2 6 1 3 1007.2 1006.8 24.8
24/10:30pm 22.7 26.7 22.7 100 0.0 SSW 6 9 3 5 1007.5 1007.1 23.6
24/10:00pm 22.6 24.0 22.6 100 0.0 SSW 19 28 10 15 1008.5 1008.1 22.2
24/09:50pm 22.6 23.9 22.6 100 0.0 SSW 20 30 11 16 1008.4 1008.0 22.0
24/09:30pm 22.4 25.3 22.4 100 0.0 S 11 19 6 10 1007.9 1007.5 20.2
24/09:16pm 22.6 24.0 22.6 100 0.0 S 19 35 10 19 1008.4 1008.0 15.2
24/09:00pm 22.7 22.8 21.9 95 0.5 S 24 43 13 23 1008.1 1007.5 8.6
24/08:57pm 22.9 22.4 21.4 91 1.0 S 26 43 14 23 1008.0 1007.6 7.0
24/08:46pm 25.2 25.7 20.9 77 2.8 SW 19 43 10 23 1007.7 1007.3 5.8
24/08:42pm 27.8 32.3 26.4 92 1.0 W 15 22 8 12 1007.2 1006.8 5.8
24/08:30pm 27.6 32.1 26.4 93 0.9 WNW 15 22 8 12 1006.5 1006.1 5.8
24/08:00pm 27.3 32.4 26.1 93 0.9 NW 11 15 6 8 1006.1 1005.7 5.8
24/07:30pm 27.4 32.0 26.0 92 1.0 WNW 13 20 7 11 1006.1 1005.7 5.8
24/07:00pm 27.0 32.0 26.0 94 0.7 NW 11 19 6 10 1005.4 1005.0 5.8
24/06:30pm 27.0 31.1 25.2 90 1.3 WNW 13 20 7 11 1005.3 1004.9 5.8
24/06:00pm 27.1 31.7 24.7 87 1.7 WNW 9 13 5 7 1005.2 1004.6 5.8
24/05:30pm 27.0 32.0 25.4 91 1.1 W 9 13 5 7 1004.5 1004.1 5.8
24/05:00pm 26.7 31.5 25.7 94 0.7 NW 11 17 6 9 1004.4 1004.0 5.8
24/04:58pm 26.8 31.7 25.8 94 0.7 NW 11 17 6 9 1004.4 1004.0 5.8
24/04:36pm 27.2 32.2 25.4 90 1.3 NW 9 17 5 9 1004.7 1004.3 5.2
24/04:30pm 27.1 32.2 25.5 91 1.1 NW 9 13 5 7 1004.6 1004.2 5.2
24/04:00pm 26.4 31.3 25.2 93 0.8 NNW 9 19 5 10 1003.9 1003.6 5.2
24/03:30pm 26.2 30.3 23.9 87 1.6 N 9 13 5 7 1003.6 1003.3 5.2
24/03:00pm 26.7 30.9 23.2 81 2.4 ENE 6 7 3 4 1004.3 1003.7 5.2
24/02:30pm 26.5 31.9 23.8 85 1.9 ENE 2 7 1 4 1004.9 1004.5 5.2
24/02:00pm 25.8 29.6 22.7 83 2.1 SW 7 11 4 6 1005.0 1004.6 5.2
24/01:30pm 27.7 31.3 23.7 79 2.8 NNW 11 17 6 9 1004.9 1004.5 5.0
24/01:03pm 27.5 31.2 23.9 81 2.5 NNW 11 17 6 9 1005.5 1005.1 5.0
24/01:00pm 27.5 31.1 23.7 80 2.6 NNW 11 19 6 10 1005.5 1005.1 5.0
24/12:43pm 27.4 32.1 25.6 90 1.3 NNW 11 15 6 8 1005.9 1005.5 5.0
24/12:30pm 27.4 32.7 25.8 91 1.1 NW 9 15 5 8 1006.1 1005.7 5.0
24/12:00pm 26.9 32.2 25.3 91 1.1 WNW 7 9 4 5 1006.5 1005.9 5.0
24/11:30am 26.0 31.4 25.5 97 0.4 WNW 7 11 4 6 1006.7 1006.3 5.0
24/11:00am 24.6 30.8 24.6 100 0.0 CALM 0 0 0 0 1007.2 1006.8 5.0
24/10:57am 24.4 30.5 24.4 100 0.0 CALM 0 0 0 0 1007.3 1006.9 4.8
24/10:36am 24.0 28.1 24.0 100 0.0 WNW 9 19 5 10 1008.2 1007.8 3.6
24/10:30am 24.1 27.5 24.1 100 0.0 WNW 13 24 7 13 1008.3 1007.9 2.8
24/10:28am 24.3 27.9 24.3 100 0.0 W 13 24 7 13 1008.3 1007.9 2.8
24/10:09am 25.9 28.2 23.4 86 1.7 WNW 17 39 9 21 1008.7 1008.3 1.8
24/10:08am 26.3 29.2 23.2 83 2.1 WNW 13 39 7 21 1008.7 1008.3 1.8
24/10:00am 28.4 33.1 25.0 82 2.4 NW 9 13 5 7 1008.0 1007.6 0.2
24/09:30am 28.0 32.6 24.2 80 2.6 NW 7 11 4 6 1007.9 1007.5 0.0
24/09:00am 28.0 32.5 25.2 85 2.0 W 11 17 6 9 1007.8 1007.2 36.0
24/08:30am 27.0 32.7 26.5 97 0.4 WSW 9 15 5 8 1007.9 1007.5 36.0
24/08:00am 25.7 31.3 25.7 100 0.0 W 7 9 4 5 1007.8 1007.4 36.0
24/07:54am 25.5 30.9 25.5 100 0.0 WSW 7 9 4 5 1008.0 1007.6 36.0
24/07:30am 25.3 29.5 25.3 100 0.0 WSW 13 15 7 8 1008.3 1007.9 32.8
24/07:11am 26.1 29.8 25.1 94 0.7 WSW 15 33 8 18 1008.3 1007.9 26.4
24/07:00am 27.0 33.1 26.5 97 0.4 SW 7 13 4 7 1007.7 1007.3 23.8
24/06:30am 26.7 33.4 26.5 99 0.1 WSW 4 7 2 4 1007.5 1007.1 23.8
24/06:00am 25.9 31.8 25.9 100 0.0 S 6 7 3 4 1007.2 1006.6 23.8
24/05:30am 25.5 31.9 25.5 100 0.0 SE 2 6 1 3 1006.9 1006.5 23.8
24/05:14am 25.6 32.4 25.6 100 0.0 CALM 0 2 0 1 1006.6 1006.2 23.8
24/05:00am 25.6 31.7 25.6 100 0.0 SSW 4 7 2 4 1006.6 1006.2 23.8
24/04:49am 25.6 31.3 25.6 100 0.0 S 6 9 3 5 1006.4 1006.0 23.8
24/04:30am 25.5 30.9 25.5 100 0.0 SW 7 9 4 5 1006.1 1005.7 23.8
24/04:00am 25.0 31.5 25.0 100 0.0 CALM 0 0 0 0 1005.7 1005.3 23.8
24/03:30am 25.1 31.6 25.1 100 0.0 CALM 0 0 0 0 1005.4 1005.0 23.8
24/03:00am 25.3 31.9 25.3 100 0.0 CALM 0 0 0 0 1005.8 1005.2 23.8
24/02:30am 25.3 31.9 25.3 100 0.0 CALM 0 0 0 0 1006.1 1005.7 23.8
24/02:00am 25.4 30.8 25.4 100 0.0 SSW 7 9 4 5 1006.1 1005.7 23.8
24/01:30am 25.2 31.8 25.2 100 0.0 CALM 0 0 0 0 1005.9 1005.5 23.8
24/01:00am 25.5 31.0 25.3 99 0.1 WSW 6 7 3 4 1006.1 1005.7 23.8
24/12:30am 25.5 30.5 24.8 96 0.5 WSW 7 11 4 6 1006.5 1006.1 23.6
24/12:00am 25.1 30.3 24.8 98 0.2 WNW 6 9 3 5 1006.9 1006.3 23.6
 
Date/Time
WST
Temp
°C
App
Temp
°C
Dew
Point
°C
Rel
Hum
%
Delta-T
°C
Wind Press
QNH
hPa
Press
MSL
hPa
Rain since
9am
mm
Dir  Spd
km/h
Gust
km/h
Spd
kts
Gust
kts
23/11:30pm 25.1 28.9 24.1 94 0.7 NW 11 19 6 10 1007.3 1006.9 23.6
23/11:08pm 24.8 29.1 24.3 97 0.3 NW 9 17 5 9 1008.1 1007.7 23.6
23/11:00pm 24.8 28.5 23.9 95 0.6 NW 11 17 6 9 1008.3 1007.9 23.6
23/10:41pm 25.4 31.0 25.4 100 0.0 N 6 9 3 5 1008.8 1008.4 23.6
23/10:30pm 25.3 30.8 25.3 100 0.0 N 6 7 3 4 1008.8 1008.4 23.6
23/10:00pm 25.1 30.5 25.1 100 0.0 NNW 6 7 3 4 1009.3 1008.9 23.2
23/09:30pm 25.1 30.9 25.1 100 0.0 SW 4 7 2 4 1009.1 1008.7 23.0
23/09:00pm 25.1 30.5 25.1 100 0.0 SW 6 7 3 4 1009.1 1008.5 22.8
23/08:30pm 25.1 29.5 25.1 100 0.0 SSW 11 15 6 8 1009.1 1008.7 22.2
23/08:00pm 25.0 29.4 25.0 100 0.0 SSW 11 15 6 8 1008.7 1008.3 21.2
23/07:30pm 25.0 29.4 25.0 100 0.0 SSW 11 13 6 7 1008.2 1007.8 20.2
23/07:00pm 25.5 28.8 24.5 94 0.7 SW 15 22 8 12 1007.6 1007.2 19.4
23/06:37pm 25.0 28.5 24.8 99 0.1 SW 15 24 8 13 1008.0 1007.6 19.0
23/06:34pm 25.1 28.8 25.1 100 0.0 SW 15 24 8 13 1008.1 1007.7 18.8
23/06:30pm 25.1 28.4 25.1 100 0.0 SW 17 24 9 13 1008.1 1007.7 18.8
23/06:24pm 24.9 27.7 24.9 100 0.0 SW 19 28 10 15 1008.2 1007.8 18.8
23/06:23pm 24.9 27.7 24.9 100 0.0 SW 19 28 10 15 1008.2 1007.8 18.8
23/06:20pm 24.8 27.3 24.8 100 0.0 WSW 20 32 11 17 1008.2 1007.8 18.6
23/06:10pm 24.5 25.7 24.5 100 0.0 W 26 48 14 26 1008.2 1007.8 13.6
23/06:03pm 24.8 24.7 24.3 97 0.3 W 32 52 17 28 1008.0 1007.6 6.4
23/06:00pm 25.3 26.1 24.4 95 0.6 WSW 28 52 15 28 1007.8 1007.2 3.8
23/05:59pm 25.5 26.8 24.6 95 0.6 SW 26 52 14 28 1007.9 1007.5 3.4
23/05:57pm 25.8 27.2 24.2 91 1.1 SSW 24 52 13 28 1007.6 1007.2 2.2
23/05:55pm 26.4 28.6 24.2 88 1.5 SSW 20 52 11 28 1007.2 1006.8 2.0
23/05:30pm 27.9 32.5 25.3 86 1.8 SSW 11 15 6 8 1006.5 1006.1 1.8
23/05:00pm 27.7 31.0 24.5 83 2.2 WNW 15 26 8 14 1005.8 1005.4 1.8
23/04:30pm 28.9 33.5 25.9 84 2.1 WNW 13 24 7 13 1005.3 1004.9 1.8
23/04:00pm 29.0 34.0 26.6 87 1.7 NW 13 22 7 12 1005.0 1004.6 1.8
23/03:30pm 29.7 33.8 26.3 82 2.4 NW 17 30 9 16 1004.7 1004.3 1.8
23/03:00pm 29.3 35.2 27.9 92 1.0 NNW 13 22 7 12 1004.7 1004.1 1.8
23/02:52pm 28.8 34.5 27.6 93 0.9 NW 13 22 7 12 1004.7 1004.3 1.8
23/02:33pm 27.4 29.6 24.3 83 2.1 NW 20 33 11 18 1005.1 1004.7 1.4
23/02:30pm 29.8 32.6 25.8 79 2.8 NW 22 32 12 17 1005.0 1004.6 0.2
23/02:00pm 29.8 32.1 25.1 76 3.3 NNW 22 32 12 17 1005.1 1004.7 0.2
23/01:30pm 29.9 32.9 25.6 78 3.0 NW 20 32 11 17 1005.2 1004.8 0.2
23/01:00pm 29.9 32.7 25.0 75 3.4 NW 19 26 10 14 1005.3 1004.9 0.2
23/12:30pm 30.0 32.3 25.1 75 3.5 NNW 22 35 12 19 1005.8 1005.4 0.2
23/12:00pm 30.7 33.9 25.8 75 3.5 NNW 20 35 11 19 1005.9 1005.3 0.2
23/11:30am 30.9 32.9 24.5 68 4.5 NNW 22 37 12 20 1006.6 1006.2 0.2
23/11:00am 30.9 33.6 25.7 74 3.7 NNW 22 37 12 20 1006.9 1006.5 0.2
23/10:30am 30.7 32.9 24.8 71 4.1 NW 22 32 12 17 1007.1 1006.7 0.2
23/10:00am 30.3 33.5 24.9 73 3.8 NW 17 32 9 17 1007.4 1007.0 0.2
23/09:30am 29.9 32.7 25.0 75 3.4 NW 19 30 10 16 1007.7 1007.3 0.0
23/09:00am 29.4 33.9 25.2 78 3.0 NW 11 20 6 11 1007.8 1007.2 1.6
23/08:30am 28.4 33.5 25.6 85 2.0 NW 9 13 5 7 1007.7 1007.3 1.6
23/08:00am 28.1 32.5 25.1 84 2.1 NNW 11 15 6 8 1007.5 1007.1 1.6
23/07:30am 28.2 33.7 25.6 86 1.8 NNW 7 11 4 6 1007.7 1007.3 1.6
23/07:00am 27.7 33.1 25.5 88 1.5 NW 7 9 4 5 1007.8 1007.4 1.6
23/06:30am 27.7 32.4 24.9 85 2.0 NW 9 13 5 7 1007.7 1007.3 1.6
23/06:14am 27.6 33.0 26.0 91 1.1 NW 9 15 5 8 1007.4 1007.0 1.6
23/06:00am 27.6 31.7 25.2 87 1.7 WNW 13 30 7 16 1007.2 1006.6 1.6
23/05:58am 27.8 31.8 25.0 85 2.0 WNW 13 30 7 16 1007.2 1006.8 1.6
23/05:30am 27.9 33.5 25.7 88 1.6 NW 7 11 4 6 1006.7 1006.3 0.2
23/05:00am 27.5 32.6 24.6 84 2.0 NNW 6 7 3 4 1006.1 1005.7 0.2
23/04:30am 28.3 32.7 25.1 83 2.2 NW 11 17 6 9 1005.7 1005.3 0.2
23/04:00am 27.9 33.5 25.7 88 1.6 NW 7 11 4 6 1005.8 1005.4 0.2
23/03:30am 27.9 33.3 25.5 87 1.7 NNW 7 11 4 6 1005.6 1005.2 0.2
23/03:00am 27.9 33.4 26.1 90 1.3 NNW 9 15 5 8 1005.4 1004.8 0.2
23/02:30am 28.2 33.5 25.8 87 1.7 NNW 9 17 5 9 1005.4 1005.0 0.2
23/02:00am 28.1 33.9 26.1 89 1.4 N 7 13 4 7 1005.3 1004.9 0.2
23/01:30am 27.9 33.4 26.1 90 1.3 NNW 9 15 5 8 1005.6 1005.2 0.2
23/01:00am 26.3 33.2 26.3 100 0.0 N 2 7 1 4 1005.9 1005.5 0.2
23/12:30am 26.2 33.4 26.2 100 0.0 CALM 0 0 0 0 1006.1 1005.7 0.2
23/12:00am 25.8 32.8 25.8 100 0.0 CALM 0 0 0 0 1006.5 1005.9 0.2
 
Date/Time
WST
Temp
°C
App
Temp
°C
Dew
Point
°C
Rel
Hum
%
Delta-T
°C
Wind Press
QNH
hPa
Press
MSL
hPa
Rain since
9am
mm
Dir  Spd
km/h
Gust
km/h
Spd
kts
Gust
kts
22/11:30pm 26.0 33.0 25.8 99 0.1 CALM 0 0 0 0 1006.9 1006.5 0.2

Other formats

Comma delimited format used in spreadsheet applications
http://www.bom.gov.au/fwo/IDW60801/IDW60801.95101.axf

JavaScript Object Notation format (JSON) in row-major order
http://www.bom.gov.au/fwo/IDW60801/IDW60801.95101.json

Data quality

Most of these data are generated automatically and are frequently updated. Quality checks on data are not normally performed. It is possible for incorrect values to appear. Refer to information at About Latest Weather Observations and please check the disclaimer before using these data.